createdAt,value
2018-07-22T00:00:23.090Z,62.46
2018-07-22T00:02:51.864Z,61.88
2018-07-22T00:05:20.638Z,61.94
2018-07-22T00:07:49.470Z,62.63
2018-07-22T00:10:27.442Z,62.66
2018-07-22T00:12:57.042Z,63.51
2018-07-22T00:15:25.799Z,63.79
2018-07-22T00:17:54.622Z,63.00
2018-07-22T00:20:23.415Z,63.78
2018-07-22T00:22:52.226Z,63.46
2018-07-22T00:25:21.961Z,62.77
2018-07-22T00:27:50.805Z,63.38
2018-07-22T00:30:19.634Z,62.17
2018-07-22T00:32:48.385Z,62.66
2018-07-22T00:35:17.206Z,63.22
2018-07-22T00:37:46.181Z,62.90
2018-07-22T00:40:14.962Z,62.70
2018-07-22T00:42:43.746Z,63.53
2018-07-22T00:45:13.649Z,63.44
2018-07-22T00:47:43.247Z,63.60
2018-07-22T00:50:12.215Z,62.79
2018-07-22T00:52:41.401Z,63.06
2018-07-22T00:55:10.154Z,64.57
2018-07-22T00:57:38.951Z,64.95
2018-07-22T01:00:08.377Z,63.91
2018-07-22T01:02:37.333Z,64.94
2018-07-22T01:05:06.667Z,64.77
2018-07-22T01:07:35.454Z,63.96
2018-07-22T01:10:04.333Z,64.41
2018-07-22T01:12:33.104Z,64.79
2018-07-22T01:15:01.902Z,65.58
2018-07-22T01:17:30.727Z,65.37
2018-07-22T01:19:59.545Z,65.65
2018-07-22T01:22:28.355Z,65.33
2018-07-22T01:24:57.101Z,65.98
2018-07-22T01:27:25.859Z,65.93
2018-07-22T01:29:54.622Z,65.73
2018-07-22T01:32:23.369Z,65.82
2018-07-22T01:34:52.198Z,66.43
2018-07-22T01:37:20.985Z,66.82
2018-07-22T01:39:50.061Z,66.51
2018-07-22T01:42:18.824Z,66.33
2018-07-22T01:44:47.582Z,66.69
2018-07-22T01:47:16.401Z,66.58
2018-07-22T01:49:45.175Z,66.85
2018-07-22T01:52:14.014Z,65.56
2018-07-22T01:54:42.776Z,66.41
2018-07-22T01:57:11.588Z,66.51
2018-07-22T01:59:40.400Z,66.91
2018-07-22T02:02:09.378Z,67.89
2018-07-22T02:04:42.974Z,67.84
2018-07-22T02:07:11.917Z,68.52
2018-07-22T02:09:40.701Z,69.25
2018-07-22T02:12:09.485Z,68.75
2018-07-22T02:14:38.257Z,69.62
2018-07-22T02:17:07.074Z,69.12
2018-07-22T02:19:35.871Z,68.56
2018-07-22T02:22:04.780Z,68.71
2018-07-22T02:24:33.570Z,69.41
2018-07-22T02:27:02.327Z,69.25
2018-07-22T02:29:31.154Z,68.10
2018-07-22T02:31:59.961Z,68.27
2018-07-22T02:34:28.737Z,68.27
2018-07-22T02:36:57.556Z,67.54
2018-07-22T02:39:26.332Z,67.78
2018-07-22T02:41:55.103Z,67.51
2018-07-22T02:44:23.924Z,67.79
2018-07-22T02:46:52.726Z,67.71
2018-07-22T02:49:21.470Z,67.15
2018-07-22T02:51:50.335Z,68.48
2018-07-22T02:54:19.112Z,67.36
2018-07-22T02:56:47.973Z,67.34
2018-07-22T02:59:16.750Z,67.38
2018-07-22T03:01:45.493Z,67.91
2018-07-22T03:04:14.259Z,67.49
2018-07-22T03:06:43.024Z,67.47
2018-07-22T03:09:11.783Z,67.65
2018-07-22T03:11:40.590Z,67.36
2018-07-22T03:14:09.391Z,67.56
2018-07-22T03:16:38.194Z,67.99
2018-07-22T03:19:07.022Z,67.97
2018-07-22T03:21:35.755Z,67.70
2018-07-22T03:24:04.546Z,68.13
2018-07-22T03:26:33.336Z,67.66
2018-07-22T03:29:02.103Z,68.19
2018-07-22T03:31:30.900Z,67.41
2018-07-22T03:33:59.702Z,67.53
2018-07-22T03:36:28.514Z,67.80
2018-07-22T03:38:57.303Z,68.24
2018-07-22T03:41:26.069Z,67.36
2018-07-22T03:43:54.868Z,67.51
2018-07-22T03:46:23.601Z,67.43
2018-07-22T03:48:52.382Z,67.90
2018-07-22T03:51:21.175Z,67.94
2018-07-22T03:53:49.953Z,67.45
2018-07-22T03:56:18.828Z,67.50
2018-07-22T03:58:48.010Z,67.13
2018-07-22T04:01:16.850Z,66.87
2018-07-22T04:03:45.716Z,67.54
2018-07-22T04:06:14.521Z,66.57
2018-07-22T04:08:43.319Z,65.82
2018-07-22T04:11:12.136Z,66.33
2018-07-22T04:13:41.031Z,66.23
2018-07-22T04:16:09.896Z,66.29
2018-07-22T04:18:44.533Z,65.83
2018-07-22T04:21:13.405Z,66.52
2018-07-22T04:23:42.236Z,66.61
2018-07-22T04:26:11.051Z,67.14
2018-07-22T04:28:39.983Z,66.23
2018-07-22T04:31:08.813Z,66.58
2018-07-22T04:33:37.641Z,65.72
2018-07-22T04:36:06.619Z,65.21
2018-07-22T04:38:35.413Z,64.83
2018-07-22T04:41:04.241Z,64.02
2018-07-22T04:43:33.078Z,63.67
2018-07-22T04:46:01.920Z,63.80
2018-07-22T04:48:30.716Z,63.33
2018-07-22T04:50:59.553Z,63.80
2018-07-22T04:53:28.411Z,62.42
2018-07-22T04:55:57.413Z,61.46
2018-07-22T04:58:26.240Z,60.71
2018-07-22T05:00:55.057Z,59.59
2018-07-22T05:03:23.905Z,56.98
2018-07-22T05:05:52.686Z,55.13
2018-07-22T05:08:21.497Z,52.65
2018-07-22T05:10:50.307Z,51.04
2018-07-22T05:13:19.159Z,49.32
2018-07-22T05:15:47.965Z,48.62
2018-07-22T05:18:16.849Z,47.56
2018-07-22T05:20:45.686Z,45.68
2018-07-22T05:23:14.530Z,44.58
2018-07-22T05:25:43.357Z,44.10
2018-07-22T05:28:12.208Z,42.97
2018-07-22T05:30:41.072Z,42.48
2018-07-22T05:33:09.892Z,42.90
2018-07-22T05:35:38.756Z,41.26
2018-07-22T05:38:07.566Z,40.32
2018-07-22T05:40:36.414Z,40.20
2018-07-22T05:43:05.328Z,41.55
2018-07-22T05:45:34.145Z,40.69
2018-07-22T05:48:02.931Z,41.44
2018-07-22T05:50:31.743Z,40.58
2018-07-22T05:53:00.589Z,42.28
2018-07-22T05:55:29.410Z,42.94
2018-07-22T05:57:58.243Z,43.83
2018-07-22T06:00:27.157Z,43.87
2018-07-22T06:02:55.987Z,44.26
2018-07-22T06:05:24.886Z,45.97
2018-07-22T06:07:53.688Z,46.53
2018-07-22T06:10:22.530Z,46.09
2018-07-22T06:12:51.314Z,47.48
2018-07-22T06:15:20.154Z,46.98
2018-07-22T06:17:48.923Z,46.89
2018-07-22T06:20:17.680Z,46.30
2018-07-22T06:22:46.432Z,45.86
2018-07-22T06:25:15.629Z,45.93
2018-07-22T06:27:44.403Z,45.75
2018-07-22T06:30:13.301Z,45.44
2018-07-22T06:32:42.082Z,47.26
2018-07-22T06:35:10.888Z,47.01
2018-07-22T06:37:39.925Z,46.87
2018-07-22T06:40:08.735Z,47.11
2018-07-22T06:42:37.550Z,46.57
2018-07-22T06:45:06.921Z,46.60
2018-07-22T06:47:35.711Z,47.55
2018-07-22T06:50:05.019Z,48.09
2018-07-22T06:52:33.947Z,47.87
2018-07-22T06:55:02.787Z,48.40
2018-07-22T06:57:31.658Z,49.51
2018-07-22T07:00:00.447Z,48.87
2018-07-22T07:02:29.255Z,49.40
2018-07-22T07:04:58.143Z,49.27
2018-07-22T07:07:27.137Z,50.40
2018-07-22T07:09:56.029Z,50.03
2018-07-22T07:12:25.399Z,49.88
2018-07-22T07:14:54.151Z,50.68
2018-07-22T07:17:22.942Z,50.05
2018-07-22T07:19:51.738Z,50.52
2018-07-22T07:22:20.593Z,51.11
2018-07-22T07:24:49.384Z,49.80
2018-07-22T07:27:18.217Z,51.05
2018-07-22T07:29:47.035Z,51.10
2018-07-22T07:32:15.830Z,50.23
2018-07-22T07:34:44.610Z,50.89
2018-07-22T07:37:13.467Z,50.15
2018-07-22T07:39:42.607Z,51.42
2018-07-22T07:42:11.441Z,50.43
2018-07-22T07:44:40.381Z,50.34
2018-07-22T07:47:09.180Z,50.12
2018-07-22T07:49:37.963Z,50.33
2018-07-22T07:52:06.777Z,50.25
2018-07-22T07:54:35.726Z,49.35
2018-07-22T07:57:04.579Z,49.63
2018-07-22T07:59:33.440Z,49.43
2018-07-22T08:02:02.226Z,49.38
2018-07-22T08:04:31.093Z,49.53
2018-07-22T08:06:59.962Z,50.09
2018-07-22T08:09:28.773Z,48.42
2018-07-22T08:11:57.593Z,48.86
2018-07-22T08:14:26.416Z,49.02
2018-07-22T08:16:55.621Z,48.02
2018-07-22T08:19:24.427Z,47.27
2018-07-22T08:21:53.354Z,47.37
2018-07-22T08:24:22.346Z,46.78
2018-07-22T08:26:51.105Z,46.95
2018-07-22T08:29:25.196Z,45.88
2018-07-22T08:31:54.042Z,45.95
2018-07-22T08:34:22.900Z,46.00
2018-07-22T08:36:51.778Z,46.04
2018-07-22T08:39:21.846Z,46.03
2018-07-22T08:41:51.440Z,45.49
2018-07-22T08:44:20.481Z,44.78
2018-07-22T08:46:49.251Z,44.60
2018-07-22T08:49:18.112Z,42.95
2018-07-22T08:51:46.984Z,44.65
2018-07-22T08:54:15.775Z,44.38
2018-07-22T08:56:44.608Z,44.17
2018-07-22T08:59:13.433Z,43.61
2018-07-22T09:01:42.661Z,42.90
2018-07-22T09:04:11.473Z,43.67
2018-07-22T09:06:40.363Z,44.95
2018-07-22T09:09:11.303Z,43.64
2018-07-22T09:11:40.218Z,43.55
2018-07-22T09:14:09.944Z,43.27
2018-07-22T09:16:39.089Z,44.02
2018-07-22T09:19:07.983Z,42.75
2018-07-22T09:21:37.089Z,42.75
2018-07-22T09:24:05.872Z,43.47
2018-07-22T09:26:34.673Z,43.59
2018-07-22T09:29:03.569Z,42.50
2018-07-22T09:31:32.360Z,42.98
2018-07-22T09:34:01.172Z,42.41
2018-07-22T09:36:30.022Z,42.77
2018-07-22T09:38:58.929Z,42.37
2018-07-22T09:41:27.795Z,42.29
2018-07-22T09:43:56.547Z,42.94
2018-07-22T09:46:25.293Z,43.33
2018-07-22T09:48:54.038Z,41.35
2018-07-22T09:51:22.850Z,43.11
2018-07-22T09:53:51.622Z,42.06
2018-07-22T09:56:20.421Z,43.13
2018-07-22T09:58:49.283Z,42.06
2018-07-22T10:01:18.123Z,41.54
2018-07-22T10:03:46.939Z,42.85
2018-07-22T10:06:15.733Z,40.45
2018-07-22T10:08:44.593Z,40.55
2018-07-22T10:11:13.460Z,40.88
2018-07-22T10:13:42.419Z,42.03
2018-07-22T10:16:11.202Z,40.19
2018-07-22T10:18:39.985Z,39.48
2018-07-22T10:21:08.836Z,39.44
2018-07-22T10:23:37.611Z,40.42
2018-07-22T10:26:06.448Z,40.45
2018-07-22T10:28:35.304Z,39.89
2018-07-22T10:31:04.258Z,39.86
2018-07-22T10:33:33.004Z,39.34
2018-07-22T10:36:01.810Z,39.63
2018-07-22T10:38:30.595Z,39.61
2018-07-22T10:40:59.349Z,39.36
2018-07-22T10:43:28.149Z,39.94
2018-07-22T10:45:56.942Z,39.61
2018-07-22T10:48:26.138Z,39.52
2018-07-22T10:50:55.720Z,38.88
2018-07-22T10:53:24.679Z,38.73
2018-07-22T10:55:53.654Z,39.66
2018-07-22T10:58:22.397Z,39.14
2018-07-22T11:00:51.190Z,39.46
2018-07-22T11:03:20.017Z,38.47
2018-07-22T11:05:48.990Z,39.26
2018-07-22T11:08:17.949Z,39.33
2018-07-22T11:10:46.718Z,39.21
2018-07-22T11:13:15.515Z,39.70
2018-07-22T11:15:44.363Z,39.67
2018-07-22T11:18:13.313Z,38.77
2018-07-22T11:20:42.086Z,38.35
2018-07-22T11:23:11.269Z,38.70
2018-07-22T11:25:40.105Z,38.49
2018-07-22T11:28:08.898Z,38.88
2018-07-22T11:30:37.682Z,36.34
2018-07-22T11:33:06.433Z,36.36
2018-07-22T11:35:35.189Z,35.86
2018-07-22T11:38:03.994Z,34.79
2018-07-22T11:40:32.820Z,35.51
2018-07-22T11:43:01.650Z,35.04
2018-07-22T11:45:30.576Z,33.74
2018-07-22T11:47:59.481Z,35.58
2018-07-22T11:50:28.457Z,33.59
2018-07-22T11:52:57.491Z,33.88
2018-07-22T11:55:26.430Z,33.95
2018-07-22T11:57:55.343Z,33.66
2018-07-22T12:00:24.218Z,34.37
2018-07-22T12:02:53.369Z,33.19
2018-07-22T12:05:22.186Z,34.18
2018-07-22T12:07:51.096Z,34.47
2018-07-22T12:10:20.544Z,34.22
2018-07-22T12:12:49.302Z,35.11
2018-07-22T12:15:18.145Z,34.40
2018-07-22T12:17:47.007Z,34.47
2018-07-22T12:20:15.749Z,33.34
2018-07-22T12:22:44.522Z,34.01
2018-07-22T12:25:13.379Z,32.94
2018-07-22T12:27:42.153Z,33.28
2018-07-22T12:30:10.958Z,34.01
2018-07-22T12:32:39.921Z,34.91
2018-07-22T12:35:08.704Z,35.94
2018-07-22T12:37:37.481Z,33.67
2018-07-22T12:40:06.329Z,33.50
2018-07-22T12:42:35.114Z,32.66
2018-07-22T12:45:03.971Z,33.68
2018-07-22T12:47:32.770Z,32.68
2018-07-22T12:50:01.553Z,31.73
2018-07-22T12:52:30.323Z,29.86
2018-07-22T12:54:59.208Z,32.22
2018-07-22T12:57:28.084Z,32.29
2018-07-22T12:59:56.852Z,34.98
2018-07-22T13:02:25.848Z,36.28
2018-07-22T13:04:54.655Z,36.47
2018-07-22T13:07:23.402Z,36.63
2018-07-22T13:09:52.177Z,36.94
2018-07-22T13:12:20.981Z,38.23
2018-07-22T13:14:49.854Z,39.93
2018-07-22T13:17:18.691Z,42.24
2018-07-22T13:19:47.509Z,43.06
2018-07-22T13:22:16.234Z,43.77
2018-07-22T13:24:45.059Z,49.97
2018-07-22T13:27:13.857Z,58.01
2018-07-22T13:29:42.643Z,55.78
2018-07-22T13:32:11.478Z,56.47
2018-07-22T13:34:40.357Z,63.17
2018-07-22T13:37:09.154Z,61.60
2018-07-22T13:39:37.981Z,62.74
2018-07-22T13:42:06.761Z,61.22
2018-07-22T13:44:35.618Z,59.50
2018-07-22T13:47:04.463Z,60.87
2018-07-22T13:49:33.234Z,61.24
2018-07-22T13:52:02.442Z,60.83
2018-07-22T13:54:31.265Z,60.01
2018-07-22T13:57:00.411Z,55.69
2018-07-22T13:59:29.222Z,56.19
2018-07-22T14:01:58.027Z,54.67
2018-07-22T14:04:27.005Z,54.07
2018-07-22T14:06:56.015Z,52.89
2018-07-22T14:09:25.205Z,52.42
2018-07-22T14:11:54.146Z,51.52
2018-07-22T14:14:23.109Z,52.43
2018-07-22T14:16:51.879Z,53.90
2018-07-22T14:19:21.546Z,55.30
2018-07-22T14:21:51.723Z,56.73
2018-07-22T14:24:20.777Z,58.45
2018-07-22T14:26:49.554Z,60.11
2018-07-22T14:29:18.366Z,60.28
2018-07-22T14:31:48.342Z,61.07
2018-07-22T14:34:17.340Z,59.16
2018-07-22T14:36:46.088Z,61.43
2018-07-22T14:39:14.955Z,61.61
2018-07-22T14:41:43.809Z,61.44
2018-07-22T14:44:12.606Z,56.03
2018-07-22T14:46:41.701Z,54.62
2018-07-22T14:49:11.101Z,52.35
2018-07-22T14:51:40.909Z,50.69
2018-07-22T14:54:09.757Z,52.02
2018-07-22T14:56:38.550Z,55.27
2018-07-22T14:59:07.730Z,54.73
2018-07-22T15:01:36.540Z,54.44
2018-07-22T15:04:05.729Z,53.43
2018-07-22T15:06:34.483Z,52.37
2018-07-22T15:09:03.858Z,52.02
2018-07-22T15:11:32.657Z,50.69
2018-07-22T15:14:01.476Z,51.79
2018-07-22T15:16:30.736Z,51.60
2018-07-22T15:18:59.567Z,51.65
2018-07-22T15:21:28.483Z,50.24
2018-07-22T15:23:57.284Z,48.84
2018-07-22T15:26:26.103Z,49.06
2018-07-22T15:28:54.945Z,49.12
2018-07-22T15:31:23.794Z,47.96
2018-07-22T15:33:52.639Z,46.65
2018-07-22T15:36:21.528Z,46.49
2018-07-22T15:38:50.341Z,46.19
2018-07-22T15:41:19.198Z,45.69
2018-07-22T15:43:47.970Z,45.96
2018-07-22T15:46:16.770Z,43.84
2018-07-22T15:48:45.541Z,44.75
2018-07-22T15:51:14.300Z,44.01
2018-07-22T15:53:43.487Z,44.19
2018-07-22T15:56:12.878Z,43.86
2018-07-22T15:58:41.966Z,43.28
2018-07-22T16:01:11.319Z,43.21
2018-07-22T16:03:40.152Z,43.51
2018-07-22T16:06:09.028Z,44.86
2018-07-22T16:08:37.909Z,44.46
2018-07-22T16:11:06.719Z,43.65
2018-07-22T16:13:35.535Z,43.12
2018-07-22T16:16:04.396Z,43.52
2018-07-22T16:18:33.265Z,40.89
2018-07-22T16:21:02.655Z,39.22
2018-07-22T16:23:31.630Z,41.23
2018-07-22T16:26:00.970Z,42.09
2018-07-22T16:28:30.503Z,40.92
2018-07-22T16:30:59.275Z,40.22
2018-07-22T16:33:29.349Z,39.72
2018-07-22T16:35:58.194Z,38.29
2018-07-22T16:38:26.984Z,39.22
2018-07-22T16:40:56.235Z,41.64
2018-07-22T16:43:25.218Z,42.29
2018-07-22T16:45:54.114Z,44.84
2018-07-22T16:48:22.961Z,45.53
2018-07-22T16:50:51.722Z,46.16
2018-07-22T16:53:20.555Z,45.89
2018-07-22T16:55:49.497Z,46.18
2018-07-22T16:58:18.364Z,47.18
2018-07-22T17:00:47.422Z,48.14
2018-07-22T17:03:16.206Z,49.99
2018-07-22T17:05:45.048Z,50.88
2018-07-22T17:08:14.614Z,50.77
2018-07-22T17:10:43.434Z,51.77
2018-07-22T17:13:12.274Z,50.89
2018-07-22T17:15:41.073Z,51.19
2018-07-22T17:18:18.406Z,52.45
2018-07-22T17:20:47.834Z,52.52
2018-07-22T17:23:16.657Z,51.30
2018-07-22T17:25:45.481Z,52.44
2018-07-22T17:28:15.206Z,51.71
2018-07-22T17:30:44.049Z,52.33
2018-07-22T17:33:13.150Z,51.88
2018-07-22T17:35:41.953Z,51.96
2018-07-22T17:38:10.758Z,52.30
2018-07-22T17:40:39.512Z,52.86
2018-07-22T17:43:08.354Z,52.39
2018-07-22T17:45:38.394Z,52.05
2018-07-22T17:48:07.202Z,52.55
2018-07-22T17:50:35.998Z,52.43
2018-07-22T17:53:04.803Z,52.98
2018-07-22T17:55:33.618Z,52.41
2018-07-22T17:58:02.448Z,53.23
2018-07-22T18:00:31.257Z,53.17
2018-07-22T18:03:37.234Z,52.96
2018-07-22T18:06:06.057Z,54.38
2018-07-22T18:08:34.839Z,55.07
2018-07-22T18:11:03.621Z,54.39
2018-07-22T18:13:32.786Z,54.89
2018-07-22T18:16:01.574Z,56.19
2018-07-22T18:18:30.450Z,55.50
2018-07-22T18:20:59.443Z,56.74
2018-07-22T18:23:28.218Z,56.22
2018-07-22T18:25:56.991Z,56.26
2018-07-22T18:28:25.796Z,56.99
2018-07-22T18:30:54.666Z,58.15
2018-07-22T18:33:23.485Z,58.37
2018-07-22T18:35:52.283Z,58.30
2018-07-22T18:38:21.145Z,59.62
2018-07-22T18:40:49.972Z,60.24
2018-07-22T18:43:18.748Z,60.27
2018-07-22T18:45:47.587Z,60.18
2018-07-22T18:48:16.532Z,60.83
2018-07-22T18:50:45.548Z,61.44
2018-07-22T18:53:14.380Z,60.95
2018-07-22T18:55:43.242Z,60.86
2018-07-22T18:58:12.341Z,61.03
2018-07-22T19:00:41.263Z,61.44
2018-07-22T19:03:10.118Z,61.28
2018-07-22T19:05:38.991Z,61.51
2018-07-22T19:08:07.835Z,61.44
2018-07-22T19:10:36.673Z,60.78
2018-07-22T19:13:05.516Z,62.10
2018-07-22T19:15:34.907Z,61.91
2018-07-22T19:18:03.747Z,62.45
2018-07-22T19:20:32.522Z,61.90
2018-07-22T19:23:02.263Z,62.85
2018-07-22T19:25:31.443Z,62.58
2018-07-22T19:28:00.252Z,63.32
2018-07-22T19:30:29.134Z,62.89
2018-07-22T19:32:59.834Z,64.08
2018-07-22T19:35:28.595Z,64.53
2018-07-22T19:37:57.414Z,64.54
2018-07-22T19:40:26.214Z,64.14
2018-07-22T19:42:55.217Z,64.57
2018-07-22T19:45:23.969Z,64.48
2018-07-22T19:47:52.750Z,64.45
2018-07-22T19:50:21.547Z,65.19
2018-07-22T19:52:50.324Z,64.73
2018-07-22T19:55:19.109Z,65.43
2018-07-22T19:57:47.999Z,64.60
2018-07-22T20:00:16.853Z,65.05
2018-07-22T20:02:45.757Z,64.25
2018-07-22T20:05:15.237Z,64.63
2018-07-22T20:07:46.847Z,63.92
2018-07-22T20:10:15.631Z,64.54
2018-07-22T20:12:44.457Z,64.80
2018-07-22T20:15:13.429Z,65.39
2018-07-22T20:17:42.611Z,66.23
2018-07-22T20:20:12.686Z,65.25
2018-07-22T20:22:41.778Z,63.64
2018-07-22T20:25:10.687Z,63.64
2018-07-22T20:27:40.086Z,63.73
2018-07-22T20:30:09.295Z,62.87
2018-07-22T20:32:38.084Z,62.55
2018-07-22T20:35:07.581Z,63.47
2018-07-22T20:37:36.386Z,64.47
2018-07-22T20:40:05.570Z,63.64
2018-07-22T20:42:34.390Z,64.53
2018-07-22T20:45:03.698Z,63.91
2018-07-22T20:47:33.049Z,63.89
2018-07-22T20:50:01.838Z,64.95
2018-07-22T20:52:30.597Z,63.97
2018-07-22T20:54:59.459Z,64.65
2018-07-22T20:57:28.296Z,63.61
2018-07-22T20:59:57.065Z,64.64
2018-07-22T21:02:25.805Z,63.92
2018-07-22T21:04:54.662Z,63.45
2018-07-22T21:07:23.450Z,64.09
2018-07-22T21:09:52.267Z,63.71
2018-07-22T21:12:41.765Z,63.98
2018-07-22T21:15:11.039Z,64.41
2018-07-22T21:17:39.881Z,65.53
2018-07-22T21:20:08.934Z,65.07
2018-07-22T21:22:38.429Z,65.35
2018-07-22T21:25:07.258Z,65.13
2018-07-22T21:27:36.166Z,65.67
2018-07-22T21:30:06.939Z,66.06
2018-07-22T21:32:35.857Z,65.31
2018-07-22T21:35:05.160Z,63.76
2018-07-22T21:37:33.962Z,64.54
2018-07-22T21:40:03.126Z,62.80
2018-07-22T21:42:32.309Z,62.16
2018-07-22T21:45:01.113Z,61.99
2018-07-22T21:47:29.906Z,62.44
2018-07-22T21:49:59.013Z,63.55
2018-07-22T21:52:27.820Z,63.44
2018-07-22T21:54:56.662Z,64.60
2018-07-22T21:57:25.541Z,65.03
2018-07-22T21:59:54.605Z,65.32
2018-07-22T22:02:27.486Z,64.62
2018-07-22T22:04:56.424Z,64.73
2018-07-22T22:07:25.294Z,65.83
2018-07-22T22:09:54.379Z,64.38
2018-07-22T22:12:23.336Z,64.54
2018-07-22T22:14:52.131Z,64.82
2018-07-22T22:17:20.927Z,65.62
2018-07-22T22:19:49.747Z,64.87
2018-07-22T22:22:18.653Z,64.54
2018-07-22T22:24:47.477Z,66.04
2018-07-22T22:27:16.414Z,64.49
2018-07-22T22:29:45.203Z,64.25
2018-07-22T22:32:14.149Z,63.46
2018-07-22T22:34:42.937Z,63.26
2018-07-22T22:37:11.670Z,63.17
2018-07-22T22:39:40.402Z,63.01
2018-07-22T22:42:09.227Z,62.70
2018-07-22T22:44:37.989Z,62.21
2018-07-22T22:47:06.765Z,62.90
2018-07-22T22:49:35.537Z,62.07
2018-07-22T22:52:04.328Z,62.47
2018-07-22T22:54:33.202Z,62.74
2018-07-22T22:57:01.957Z,63.32
2018-07-22T22:59:30.724Z,62.79
2018-07-22T23:01:59.538Z,62.62
2018-07-22T23:04:28.287Z,63.72
2018-07-22T23:06:57.093Z,64.40
2018-07-22T23:09:25.879Z,64.65
2018-07-22T23:11:54.623Z,64.15
2018-07-22T23:14:23.457Z,64.81
2018-07-22T23:16:52.251Z,64.72
2018-07-22T23:19:21.073Z,65.25
2018-07-22T23:21:49.848Z,64.41
2018-07-22T23:24:18.618Z,64.82
2018-07-22T23:26:47.443Z,64.66
2018-07-22T23:29:16.217Z,65.90
2018-07-22T23:31:45.001Z,64.99
2018-07-22T23:34:13.757Z,66.00
2018-07-22T23:36:42.537Z,64.83
2018-07-22T23:39:11.318Z,64.50
2018-07-22T23:41:40.052Z,64.89
2018-07-22T23:44:08.997Z,64.56
2018-07-22T23:46:37.771Z,63.65
2018-07-22T23:49:06.696Z,63.24
2018-07-22T23:51:35.433Z,63.26
2018-07-22T23:54:04.203Z,63.74
2018-07-22T23:56:32.929Z,62.74
2018-07-22T23:59:01.733Z,62.52
